Ethel, Louisiana
Current Conditions -  °F | °C
As of 12:53 AM on Friday 28 Nov 2014 (Local Time) from KBTR Reporting Station
Clear Clear  
Wind Chill: 38°   Ceiling: Unl
Heat Index: 38°   Visibility: 10mi
Dew Point: 32°   Wind: 3mph
Humidity: 79%   Direction: 40°NE
Pressure: 30.43"   Gusts: NA
Location:  30.79°N, 91.13°W
Report Text: KBTR 280653Z 04003KT 10SM CLR 03/00 A3043 RMK AO2 SLP303 T00330000
Loading
Personal Weather Stations






























Interactive Weather Map New forecast layout! Learn more

10-Day Weather Forecast

Advertisements
Track Severe Weather on mobile